Galloway, New Jersey
Current Conditions -  °F | °C
As of 2:54 AM on Friday 24 Oct 2014 (Local Time) from KACY Reporting Station
Few Clouds Few Clouds  
Wind Chill: 45°   Ceiling: Unl
Heat Index: 48°   Visibility: 10mi
Dew Point: 44°   Wind: 7mph
Humidity: 86%   Direction: 260°W
Pressure: 29.81"   Gusts: NA
Location:  39.4315°N, 74.5003°W
Report Text: KACY 240654Z 26006KT 10SM FEW065 09/07 A2981 RMK AO2 SLP093 T00890067
Loading
Personal Weather Stations






























Interactive Weather Map
Tropical Storm Tracking
New forecast layout! Learn more

10-Day Weather Forecast

Advertisements
Track Severe Weather on mobile